Terminal Aerodrome Forecast
Issued by NWS Cleveland, OH

Home | Current Version | Previous Version | Graphics & Text | Print | Product List | Glossary On
Versions: 1 2 3 4 5 6 7 8 9 10 11 12 13 14 15 16 17 18 19 20 21 22 23 24 25
000
FTUS41 KCLE 120500
TAFCAK
TAF
KCAK 120536Z 1206/1306 02005KT P6SM OVC015
     FM121500 05008KT P6SM OVC015
     FM122100 02007KT P6SM OVC050
     FM122300 02007KT P6SM SCT250
     FM130100 03007KT P6SM BKN050 BKN250
     FM130500 05006KT P6SM OVC040=

USA.gov is the U.S. government's official web portal to all federal, state and local government web resources and services.